• Join FlightAware (Why Join?)
  • Login
  • US Flag 
04:15AM EST


 

Airport Tracker/Info


-or-


 

Live Flight TrackerFlight Track Log ✈ SWA864 ✈ 18-May-2013 ✈ KDEN - KSAT

Flight Track Log - Related Links

Times and Time Zones

All times are in EDT time to prevent confusion due to time zone crossing. See the SWA864 flight status page for this flight to view local times or setup timezone preferences in your user account.

Time Position Orientation Groundspeed Altitude Reporting Facility
EDT Latitude Longitude Course Direction KTS MPH feet Rate Location/Type
01:41PM 39.8833 -104.6000 173° South 177 204 6,800  Level Denver TRACON
01:42PM 39.8500 -104.5167 117° Southeast 246 283 8,900 2,100 Climbing Denver TRACON
01:43PM 39.7667 -104.5167 180° South 314 361 11,000 2,400 Climbing Denver TRACON
01:44PM 39.7406 -104.5164 180° South 313 360 12,000 3,660 Climbing Denver Center
01:45PM 39.6450 -104.5064 175° South 340 391 15,800 3,540 Climbing Denver Center
01:46PM 39.5467 -104.4961 175° South 352 405 19,300 2,820 Climbing Denver Center
01:47PM 39.2799 -104.4855 173° South  Level FlightAware Approximate
01:47PM 39.4394 -104.4872 176° South 357 411 22,300  Level Denver Center
01:48PM 39.3114 -104.4750 176° South 377 434 25,000 2,280 Climbing Denver Center
01:49PM 39.2053 -104.4644 176° South 382 440 27,100 1,800 Climbing Denver Center
01:50PM 39.0972 -104.4508 174° South 389 448 28,800 1,740 Climbing Denver Center
01:51PM 38.9744 -104.4142 167° South 404 465 30,800 1,980 Climbing Denver Center
01:52PM 38.8750 -104.3567 156° South 410 472 32,900 2,040 Climbing Denver Center
01:53PM 38.7681 -104.2728 149° Southeast 405 466 35,100 1,740 Climbing Denver Center
01:54PM 38.6764 -104.2047 150° Southeast 399 459 36,600 900 Climbing Denver Center
01:55PM 38.5853 -104.1336 149° Southeast 399 459 37,000 120 Climbing Denver Center
01:56PM 38.4772 -104.0522 149° Southeast 402 463 37,000 360 Level Denver Center
01:57PM 38.3542 -103.9578 149° Southeast 403 464 37,900 900 Climbing Denver Center
01:58PM 38.2603 -103.8867 149° Southeast 407 468 38,900 480 Climbing Denver Center
01:59PM 38.1494 -103.8033 149° Southeast 412 474 39,000  Climbing Denver Center
02:00PM 38.0694 -103.7431 149° Southeast 415 478 39,000  Level Denver Center
02:02PM 37.9597 -103.6603 149° Southeast 409 471 39,000  Level Denver Center
02:03PM 37.8500 -103.5778 149° Southeast 409 471 39,000  Level Denver Center
02:04PM 37.7394 -103.4953 149° Southeast 409 471 39,000  Level Denver Center
02:05PM 37.6272 -103.4114 149° Southeast 414 476 39,000  Level Denver Center
02:06PM 37.5319 -103.3400 149° Southeast 414 476 39,000  Level Denver Center
02:07PM 37.4208 -103.2581 150° Southeast 413 475 39,000  Level Denver Center
02:08PM 37.3261 -103.1883 150° Southeast 412 474 39,000  Level Albuquerque Center
02:09PM 37.2306 -103.1203 150° Southeast 411 473 39,000  Level Albuquerque Center
02:10PM 37.1183 -103.0378 150° Southeast 415 478 39,000  Level Albuquerque Center
02:11PM 37.0228 -102.9694 150° Southeast 413 475 39,000  Level Albuquerque Center
02:12PM 36.9128 -102.8894 150° Southeast 409 471 39,000  Level Albuquerque Center
02:13PM 36.8178 -102.8186 149° Southeast 413 475 39,000  Level Albuquerque Center
02:14PM 36.7231 -102.7494 150° Southeast 412 474 39,000  Level Albuquerque Center
02:15PM 36.6228 -102.6781 150° Southeast 416 479 39,000  Level Albuquerque Center
02:16PM 36.5006 -102.5900 150° Southeast 422 486 39,000  Level Albuquerque Center
02:17PM 36.3989 -102.5172 150° Southeast 423 487 39,000  Level Albuquerque Center
02:18PM 36.2969 -102.4431 150° Southeast 424 488 39,000  Level Albuquerque Center
02:19PM 36.1947 -102.3714 150° Southeast 423 487 39,000  Level Albuquerque Center
02:20PM 36.0922 -102.3000 151° Southeast 424 488 39,000  Level Albuquerque Center
02:21PM 35.9894 -102.2253 150° Southeast 426 490 39,000  Level Albuquerque Center
02:22PM 35.8861 -102.1528 150° Southeast 427 491 39,000  Level Albuquerque Center
02:23PM 35.7608 -102.0650 150° Southeast 431 496 39,000  Level Albuquerque Center
02:24PM 35.6556 -101.9922 151° Southeast 433 498 39,000  Level Albuquerque Center
02:25PM 35.5519 -101.9189 150° Southeast 431 496 39,000  Level Albuquerque Center
02:26PM 35.4553 -101.8503 150° Southeast 431 496 39,000  Level Albuquerque Center
02:27PM 35.3531 -101.7756 149° Southeast 426 490 39,000  Level Albuquerque Center
02:28PM 35.2233 -101.6894 152° Southeast 437 503 39,000  Level Albuquerque Center
02:29PM 35.1294 -101.6247 151° Southeast 439 505 39,000  Level Albuquerque Center
02:30PM 35.0247 -101.5514 150° Southeast 436 502 39,000  Level Albuquerque Center
02:32PM 34.9058 -101.4694 151° Southeast 445 512 39,000  Level Albuquerque Center
02:33PM 34.7997 -101.3961 150° Southeast 442 509 39,000  Level Albuquerque Center
02:34PM 34.6925 -101.3247 151° Southeast 440 506 39,000  Level Albuquerque Center
02:35PM 34.5864 -101.2511 150° Southeast 440 506 39,000  Level Albuquerque Center
02:36PM 34.4600 -101.1650 151° Southeast 436 502 39,000  Level Albuquerque Center
02:37PM 34.3539 -101.0967 152° Southeast 434 499 39,000  Level Albuquerque Center
02:38PM 34.2500 -101.0228 150° Southeast 433 498 39,000  Level Albuquerque Center
02:39PM 34.1447 -100.9536 151° Southeast 432 497 39,000  Level Albuquerque Center
02:40PM 34.0381 -100.8839 152° Southeast 434 499 39,000  Level Albuquerque Center
02:41PM 33.9319 -100.8131 151° Southeast 436 502 39,000  Level Albuquerque Center
02:42PM 33.8283 -100.7439 151° Southeast 432 497 39,000  Level Fort Worth Center
02:43PM 33.7217 -100.6750 152° Southeast 432 497 39,000  Level Fort Worth Center
02:44PM 33.6172 -100.6036 150° Southeast 432 497 39,000  Level Fort Worth Center
02:45PM 33.5106 -100.5325 151° Southeast 432 497 39,000  Level Fort Worth Center
02:46PM 33.4017 -100.4614 151° Southeast 432 497 39,000  Level Fort Worth Center
02:47PM 33.2947 -100.3908 151° Southeast 432 497 39,000  Level Fort Worth Center
02:48PM 33.1878 -100.3225 152° Southeast 432 497 39,000 -420 Level Fort Worth Center
02:49PM 33.0808 -100.2522 151° Southeast 432 497 38,200 -900 Descending Fort Worth Center
02:50PM 32.9739 -100.1819 151° Southeast 432 497 37,300 -600 Descending Fort Worth Center
02:51PM 32.8669 -100.1142 152° Southeast 432 497 37,000 -180 Descending Fort Worth Center
02:52PM 32.7597 -100.0492 153° Southeast 427 491 37,000  Level Fort Worth Center
02:53PM 32.6528 -99.9744 150° Southeast 416 479 37,000  Level Fort Worth Center
02:54PM 32.5269 -99.8972 153° Southeast 466 536 37,000  Level Fort Worth Center
02:55PM 32.4197 -99.8325 153° Southeast 451 519 37,000  Level Fort Worth Center
02:56PM 32.3122 -99.7756 156° South 437 503 37,000  Level Fort Worth Center
02:57PM 32.2006 -99.7186 157° South 437 503 37,000 -480 Level Fort Worth Center
02:58PM 32.0931 -99.6619 156° South 437 503 36,100 -1,320 Descending Fort Worth Center
02:59PM 31.9853 -99.6056 156° South 432 497 34,400 -1,740 Descending Fort Worth Center
03:00PM 31.8736 -99.5467 156° South 432 497 32,700 -1,620 Descending Fort Worth Center
03:02PM 31.6692 -99.4436 157° South 443 510 29,800 -1,320 Descending Houston Center
03:03PM 31.5519 -99.3836 156° South 454 522 29,000 -420 Descending Houston Center
03:04PM 31.4353 -99.3239 156° South 453 521 29,000 -480 Level Houston Center
03:05PM 31.3114 -99.2617 157° South 449 517 28,100 -1,020 Descending Houston Center
03:06PM 31.2094 -99.2097 156° South 416 479 27,000 -1,080 Descending Houston Center
03:07PM 31.0992 -99.1539 157° South 396 456 25,900 -1,080 Descending Houston Center
03:08PM 31.0019 -99.1039 156° South 381 438 24,900 -1,020 Descending Houston Center
03:09PM 30.9042 -99.0550 157° South 379 436 23,900 -1,260 Descending Houston Center
03:10PM 30.8064 -99.0058 157° South 380 437 22,400 -1,680 Descending Houston Center
03:11PM 30.7128 -98.9583 156° South 368 423 20,500 -1,860 Descending Houston Center
03:12PM 30.6222 -98.9133 157° South 356 410 18,600 -1,800 Descending Houston Center
03:13PM 30.5364 -98.8694 156° South 341 392 16,800 -1,740 Descending Houston Center
03:14PM 30.4503 -98.8278 157° South 333 383 15,100 -1,860 Descending Houston Center
03:15PM 30.3531 -98.7792 157° South 326 375 13,000 -1,860 Descending Houston Center
03:16PM 30.2706 -98.7372 156° South 319 367 11,300 -1,500 Descending Houston Center
03:17PM 30.1897 -98.7031 160° South 311 358 10,000 -600 Descending Houston Center
03:18PM 30.0997 -98.7181 188° South 299 344 10,100 -240 Climbing Houston Center
03:19PM 30.0178 -98.7278 186° South 296 341 9,600 -720 Descending Houston Center
03:19PM 29.9942 -98.7303 185° South 294 338 9,200 -1,380 Descending Houston Center
03:20PM 29.9339 -98.7328 182° South 281 323 8,200 -1,260 Descending Houston Center
03:21PM 29.8608 -98.7092 164° South 271 312 7,000 -1,260 Descending Houston Center
03:22PM 29.7933 -98.6908 167° South 251 289 5,700 -1,440 Descending Houston Center
03:23PM 29.7239 -98.6714 166° South 240 276 4,100 -1,200 Descending Houston Center
03:24PM 29.6661 -98.6453 159° South 224 258 3,300 -900 Descending Houston Center
03:25PM 29.6556 -98.6306 130° Southeast 210 242 3,000 -300 Descending Houston Center
03:25PM 29.6319 -98.5994 131° Southeast 193 222 3,000 -120 Level Houston Center
03:26PM 29.6247 -98.5911 135° Southeast 154 177 2,900 -420 Descending Houston Center
03:26PM 29.6033 -98.5631 131° Southeast 150 173 2,600 -600 Descending Houston Center
03:27PM 29.5986 -98.5581 137° Southeast 131 151 2,300 -720 Descending Houston Center
03:27PM 29.5783 -98.5303 130° Southeast 138 159 1,900 -660 Descending Houston Center
03:28PM 29.5525 -98.4950 130° Southeast 136 157 1,200 -720 Descending Houston Center
03:31PM 29.5333 -98.4667 120° Southeast  Level FlightAware Approximate
03:38PM 29.5340 -98.4691 120° Southeast  Level Estimated
03:39PM 29.5333 -98.4667 120° Southeast  Level FlightAware Approximate